sensor_id;sensor_type;location;lat;lon;timestamp;P1;durP1;ratioP1;P2;durP2;ratioP2
67602;SDS011;54417;47.454;18.918;2023-03-01T00:04:17;18.65;;;11.00;;
67602;SDS011;54417;47.454;18.918;2023-03-01T00:09:42;16.15;;;9.43;;
67602;SDS011;54417;47.454;18.918;2023-03-01T00:15:08;13.77;;;8.02;;
67602;SDS011;54417;47.454;18.918;2023-03-01T00:20:32;11.77;;;7.60;;
67602;SDS011;54417;47.454;18.918;2023-03-01T00:25:57;14.63;;;7.95;;
67602;SDS011;54417;47.454;18.918;2023-03-01T00:31:21;12.93;;;7.13;;
67602;SDS011;54417;47.454;18.918;2023-03-01T00:36:49;10.60;;;6.78;;
67602;SDS011;54417;47.454;18.918;2023-03-01T00:42:14;10.85;;;7.55;;
67602;SDS011;54417;47.454;18.918;2023-03-01T00:47:38;10.73;;;7.43;;
67602;SDS011;54417;47.454;18.918;2023-03-01T00:53:02;14.80;;;7.80;;
67602;SDS011;54417;47.454;18.918;2023-03-01T00:58:28;10.25;;;6.72;;
67602;SDS011;54417;47.454;18.918;2023-03-01T01:03:53;15.88;;;8.30;;
67602;SDS011;54417;47.454;18.918;2023-03-01T01:09:19;14.95;;;8.73;;
67602;SDS011;54417;47.454;18.918;2023-03-01T01:14:44;13.85;;;9.25;;
67602;SDS011;54417;47.454;18.918;2023-03-01T01:20:08;13.07;;;8.13;;
67602;SDS011;54417;47.454;18.918;2023-03-01T01:25:34;19.17;;;9.30;;
67602;SDS011;54417;47.454;18.918;2023-03-01T01:31:00;12.30;;;7.88;;
67602;SDS011;54417;47.454;18.918;2023-03-01T01:36:24;16.50;;;8.10;;
67602;SDS011;54417;47.454;18.918;2023-03-01T01:41:48;14.95;;;9.13;;
67602;SDS011;54417;47.454;18.918;2023-03-01T01:47:14;15.70;;;7.28;;
67602;SDS011;54417;47.454;18.918;2023-03-01T01:52:41;13.90;;;8.27;;
67602;SDS011;54417;47.454;18.918;2023-03-01T01:58:06;14.90;;;8.50;;
67602;SDS011;54417;47.454;18.918;2023-03-01T02:03:33;12.88;;;8.07;;
67602;SDS011;54417;47.454;18.918;2023-03-01T02:09:03;13.43;;;7.30;;
67602;SDS011;54417;47.454;18.918;2023-03-01T02:14:29;15.68;;;7.68;;
67602;SDS011;54417;47.454;18.918;2023-03-01T02:19:58;12.18;;;7.18;;
67602;SDS011;54417;47.454;18.918;2023-03-01T02:25:35;13.23;;;7.60;;
67602;SDS011;54417;47.454;18.918;2023-03-01T02:31:05;12.00;;;7.32;;
67602;SDS011;54417;47.454;18.918;2023-03-01T02:36:49;14.70;;;7.30;;
67602;SDS011;54417;47.454;18.918;2023-03-01T02:42:18;12.73;;;7.97;;
67602;SDS011;54417;47.454;18.918;2023-03-01T02:47:49;13.38;;;7.50;;
67602;SDS011;54417;47.454;18.918;2023-03-01T02:53:15;9.77;;;6.57;;
67602;SDS011;54417;47.454;18.918;2023-03-01T02:58:45;10.40;;;7.03;;
67602;SDS011;54417;47.454;18.918;2023-03-01T03:04:16;16.02;;;7.70;;
67602;SDS011;54417;47.454;18.918;2023-03-01T03:09:42;10.40;;;7.15;;
67602;SDS011;54417;47.454;18.918;2023-03-01T03:15:08;16.70;;;7.95;;
67602;SDS011;54417;47.454;18.918;2023-03-01T03:20:36;14.05;;;7.60;;
67602;SDS011;54417;47.454;18.918;2023-03-01T03:26:02;14.50;;;7.03;;
67602;SDS011;54417;47.454;18.918;2023-03-01T03:31:27;15.25;;;8.10;;
67602;SDS011;54417;47.454;18.918;2023-03-01T03:36:54;13.10;;;8.77;;
67602;SDS011;54417;47.454;18.918;2023-03-01T03:42:21;12.18;;;7.50;;
67602;SDS011;54417;47.454;18.918;2023-03-01T03:47:45;13.32;;;8.63;;
67602;SDS011;54417;47.454;18.918;2023-03-01T03:53:11;12.73;;;7.85;;
67602;SDS011;54417;47.454;18.918;2023-03-01T03:58:35;11.80;;;7.35;;
67602;SDS011;54417;47.454;18.918;2023-03-01T04:03:59;11.35;;;7.60;;
67602;SDS011;54417;47.454;18.918;2023-03-01T04:09:27;19.15;;;8.57;;
67602;SDS011;54417;47.454;18.918;2023-03-01T04:14:52;13.85;;;8.18;;
67602;SDS011;54417;47.454;18.918;2023-03-01T04:20:16;15.93;;;8.23;;
67602;SDS011;54417;47.454;18.918;2023-03-01T04:25:49;13.07;;;8.32;;
67602;SDS011;54417;47.454;18.918;2023-03-01T04:31:17;15.60;;;8.43;;
67602;SDS011;54417;47.454;18.918;2023-03-01T04:36:43;14.00;;;7.65;;
67602;SDS011;54417;47.454;18.918;2023-03-01T04:42:09;15.85;;;8.07;;
67602;SDS011;54417;47.454;18.918;2023-03-01T04:47:33;17.23;;;9.52;;
67602;SDS011;54417;47.454;18.918;2023-03-01T04:53:00;15.93;;;8.85;;
67602;SDS011;54417;47.454;18.918;2023-03-01T04:58:25;13.60;;;8.23;;
67602;SDS011;54417;47.454;18.918;2023-03-01T05:03:50;12.70;;;7.95;;
67602;SDS011;54417;47.454;18.918;2023-03-01T05:09:14;15.82;;;9.43;;
67602;SDS011;54417;47.454;18.918;2023-03-01T05:14:40;13.27;;;8.05;;
67602;SDS011;54417;47.454;18.918;2023-03-01T05:20:04;16.30;;;9.55;;
67602;SDS011;54417;47.454;18.918;2023-03-01T05:25:31;13.18;;;7.63;;
67602;SDS011;54417;47.454;18.918;2023-03-01T05:30:57;14.32;;;8.40;;
67602;SDS011;54417;47.454;18.918;2023-03-01T05:36:21;14.05;;;8.63;;
67602;SDS011;54417;47.454;18.918;2023-03-01T05:41:45;13.38;;;7.68;;
67602;SDS011;54417;47.454;18.918;2023-03-01T05:47:10;13.95;;;8.20;;
67602;SDS011;54417;47.454;18.918;2023-03-01T05:52:34;12.73;;;6.88;;
67602;SDS011;54417;47.454;18.918;2023-03-01T05:57:58;15.20;;;7.97;;
67602;SDS011;54417;47.454;18.918;2023-03-01T06:03:24;13.00;;;7.68;;
67602;SDS011;54417;47.454;18.918;2023-03-01T06:08:49;10.95;;;7.22;;
67602;SDS011;54417;47.454;18.918;2023-03-01T06:14:13;9.80;;;6.15;;
67602;SDS011;54417;47.454;18.918;2023-03-01T06:19:38;10.40;;;6.72;;
67602;SDS011;54417;47.454;18.918;2023-03-01T06:25:02;8.95;;;6.28;;
67602;SDS011;54417;47.454;18.918;2023-03-01T06:30:27;13.82;;;7.78;;
67602;SDS011;54417;47.454;18.918;2023-03-01T06:35:53;12.88;;;7.18;;
67602;SDS011;54417;47.454;18.918;2023-03-01T06:41:17;19.80;;;8.02;;
67602;SDS011;54417;47.454;18.918;2023-03-01T06:46:41;11.00;;;7.40;;
67602;SDS011;54417;47.454;18.918;2023-03-01T06:52:08;11.02;;;6.97;;
67602;SDS011;54417;47.454;18.918;2023-03-01T06:57:31;12.75;;;7.55;;
67602;SDS011;54417;47.454;18.918;2023-03-01T07:02:58;11.02;;;6.95;;
67602;SDS011;54417;47.454;18.918;2023-03-01T07:08:23;11.20;;;5.70;;
67602;SDS011;54417;47.454;18.918;2023-03-01T07:13:47;14.77;;;7.72;;
67602;SDS011;54417;47.454;18.918;2023-03-01T07:19:11;10.85;;;7.10;;
67602;SDS011;54417;47.454;18.918;2023-03-01T07:24:36;13.18;;;7.03;;
67602;SDS011;54417;47.454;18.918;2023-03-01T07:30:00;11.10;;;6.72;;
67602;SDS011;54417;47.454;18.918;2023-03-01T07:35:24;14.98;;;7.90;;
67602;SDS011;54417;47.454;18.918;2023-03-01T07:40:50;11.57;;;7.93;;
67602;SDS011;54417;47.454;18.918;2023-03-01T07:46:14;10.73;;;7.15;;
67602;SDS011;54417;47.454;18.918;2023-03-01T07:51:38;12.60;;;7.78;;
67602;SDS011;54417;47.454;18.918;2023-03-01T07:57:03;15.65;;;7.75;;
67602;SDS011;54417;47.454;18.918;2023-03-01T08:02:27;18.40;;;7.65;;
67602;SDS011;54417;47.454;18.918;2023-03-01T08:07:51;15.65;;;7.38;;
67602;SDS011;54417;47.454;18.918;2023-03-01T08:13:17;17.52;;;7.15;;
67602;SDS011;54417;47.454;18.918;2023-03-01T08:18:44;11.50;;;7.80;;
67602;SDS011;54417;47.454;18.918;2023-03-01T08:24:08;11.88;;;7.90;;
67602;SDS011;54417;47.454;18.918;2023-03-01T08:29:34;11.95;;;7.10;;
67602;SDS011;54417;47.454;18.918;2023-03-01T08:34:58;14.07;;;7.22;;
67602;SDS011;54417;47.454;18.918;2023-03-01T08:40:21;13.48;;;7.57;;
67602;SDS011;54417;47.454;18.918;2023-03-01T08:45:47;11.82;;;7.15;;
67602;SDS011;54417;47.454;18.918;2023-03-01T08:51:12;11.65;;;7.80;;
67602;SDS011;54417;47.454;18.918;2023-03-01T08:56:39;17.23;;;8.93;;
67602;SDS011;54417;47.454;18.918;2023-03-01T09:02:04;16.38;;;7.72;;
67602;SDS011;54417;47.454;18.918;2023-03-01T09:07:28;14.10;;;7.60;;
67602;SDS011;54417;47.454;18.918;2023-03-01T09:12:51;17.27;;;9.30;;
67602;SDS011;54417;47.454;18.918;2023-03-01T09:18:17;14.10;;;8.60;;
67602;SDS011;54417;47.454;18.918;2023-03-01T09:23:41;14.35;;;8.02;;
67602;SDS011;54417;47.454;18.918;2023-03-01T09:29:06;13.75;;;8.85;;
67602;SDS011;54417;47.454;18.918;2023-03-01T09:34:33;14.65;;;8.35;;
67602;SDS011;54417;47.454;18.918;2023-03-01T09:40:18;15.35;;;8.23;;
67602;SDS011;54417;47.454;18.918;2023-03-01T09:45:44;17.02;;;8.68;;
67602;SDS011;54417;47.454;18.918;2023-03-01T09:51:15;13.48;;;8.63;;
67602;SDS011;54417;47.454;18.918;2023-03-01T09:56:44;12.00;;;7.75;;
67602;SDS011;54417;47.454;18.918;2023-03-01T10:02:21;20.92;;;9.52;;
67602;SDS011;54417;47.454;18.918;2023-03-01T10:07:54;16.08;;;8.68;;
67602;SDS011;54417;47.454;18.918;2023-03-01T10:13:27;15.05;;;9.18;;
67602;SDS011;54417;47.454;18.918;2023-03-01T10:18:58;13.17;;;8.10;;
67602;SDS011;54417;47.454;18.918;2023-03-01T10:24:26;17.05;;;8.55;;
67602;SDS011;54417;47.454;18.918;2023-03-01T10:29:56;16.33;;;9.38;;
67602;SDS011;54417;47.454;18.918;2023-03-01T10:35:26;12.13;;;7.87;;
67602;SDS011;54417;47.454;18.918;2023-03-01T10:40:54;13.88;;;8.45;;
67602;SDS011;54417;47.454;18.918;2023-03-01T10:46:24;14.13;;;8.55;;
67602;SDS011;54417;47.454;18.918;2023-03-01T10:51:50;13.20;;;8.52;;
67602;SDS011;54417;47.454;18.918;2023-03-01T10:57:24;15.25;;;8.57;;
67602;SDS011;54417;47.454;18.918;2023-03-01T11:03:03;13.88;;;8.23;;
67602;SDS011;54417;47.454;18.918;2023-03-01T11:08:38;13.27;;;8.30;;
67602;SDS011;54417;47.454;18.918;2023-03-01T11:14:06;16.23;;;8.93;;
67602;SDS011;54417;47.454;18.918;2023-03-01T11:19:59;12.18;;;7.45;;
67602;SDS011;54417;47.454;18.918;2023-03-01T11:25:25;10.70;;;7.60;;
67602;SDS011;54417;47.454;18.918;2023-03-01T11:30:53;14.80;;;7.90;;
67602;SDS011;54417;47.454;18.918;2023-03-01T11:36:30;11.07;;;7.97;;
67602;SDS011;54417;47.454;18.918;2023-03-01T11:42:01;16.58;;;9.30;;
67602;SDS011;54417;47.454;18.918;2023-03-01T11:47:45;18.70;;;8.68;;
67602;SDS011;54417;47.454;18.918;2023-03-01T11:53:28;13.00;;;7.70;;
67602;SDS011;54417;47.454;18.918;2023-03-01T11:59:07;13.68;;;8.85;;
67602;SDS011;54417;47.454;18.918;2023-03-01T12:11:03;11.32;;;7.47;;
67602;SDS011;54417;47.454;18.918;2023-03-01T12:16:49;13.40;;;7.72;;
67602;SDS011;54417;47.454;18.918;2023-03-01T12:22:31;14.35;;;8.52;;
67602;SDS011;54417;47.454;18.918;2023-03-01T12:28:16;13.63;;;9.20;;
67602;SDS011;54417;47.454;18.918;2023-03-01T12:33:50;19.17;;;7.75;;
67602;SDS011;54417;47.454;18.918;2023-03-01T12:39:24;10.45;;;7.63;;
67602;SDS011;54417;47.454;18.918;2023-03-01T12:51:01;10.13;;;7.18;;
67602;SDS011;54417;47.454;18.918;2023-03-01T12:56:29;13.13;;;6.95;;
67602;SDS011;54417;47.454;18.918;2023-03-01T13:02:02;9.10;;;6.65;;
67602;SDS011;54417;47.454;18.918;2023-03-01T13:07:34;14.32;;;7.18;;
67602;SDS011;54417;47.454;18.918;2023-03-01T13:13:11;13.65;;;7.50;;
67602;SDS011;54417;47.454;18.918;2023-03-01T13:18:38;13.93;;;6.85;;
67602;SDS011;54417;47.454;18.918;2023-03-01T13:24:02;12.77;;;6.47;;
67602;SDS011;54417;47.454;18.918;2023-03-01T13:29:26;13.52;;;7.68;;
67602;SDS011;54417;47.454;18.918;2023-03-01T13:34:52;13.07;;;8.07;;
67602;SDS011;54417;47.454;18.918;2023-03-01T13:46:20;17.13;;;9.75;;
67602;SDS011;54417;47.454;18.918;2023-03-01T13:51:47;16.23;;;8.05;;
67602;SDS011;54417;47.454;18.918;2023-03-01T13:57:12;11.13;;;7.72;;
67602;SDS011;54417;47.454;18.918;2023-03-01T14:02:58;11.48;;;7.65;;
67602;SDS011;54417;47.454;18.918;2023-03-01T14:08:30;12.18;;;6.80;;
67602;SDS011;54417;47.454;18.918;2023-03-01T14:19:47;11.98;;;7.07;;
67602;SDS011;54417;47.454;18.918;2023-03-01T14:25:23;12.85;;;6.25;;
67602;SDS011;54417;47.454;18.918;2023-03-01T14:30:49;8.20;;;5.93;;
67602;SDS011;54417;47.454;18.918;2023-03-01T14:36:14;10.48;;;5.85;;
67602;SDS011;54417;47.454;18.918;2023-03-01T14:41:39;11.95;;;6.18;;
67602;SDS011;54417;47.454;18.918;2023-03-01T14:47:03;12.38;;;5.93;;
67602;SDS011;54417;47.454;18.918;2023-03-01T14:52:31;11.25;;;6.00;;
67602;SDS011;54417;47.454;18.918;2023-03-01T14:57:59;9.40;;;4.93;;
67602;SDS011;54417;47.454;18.918;2023-03-01T15:03:26;10.32;;;5.10;;
67602;SDS011;54417;47.454;18.918;2023-03-01T15:08:54;8.02;;;4.10;;
67602;SDS011;54417;47.454;18.918;2023-03-01T15:14:28;9.43;;;4.97;;
67602;SDS011;54417;47.454;18.918;2023-03-01T15:20:02;9.05;;;4.97;;
67602;SDS011;54417;47.454;18.918;2023-03-01T15:25:29;12.38;;;4.10;;
67602;SDS011;54417;47.454;18.918;2023-03-01T15:30:57;15.70;;;5.50;;
67602;SDS011;54417;47.454;18.918;2023-03-01T15:36:31;7.45;;;4.40;;
67602;SDS011;54417;47.454;18.918;2023-03-01T15:41:57;7.60;;;3.92;;
67602;SDS011;54417;47.454;18.918;2023-03-01T15:47:23;9.05;;;4.15;;
67602;SDS011;54417;47.454;18.918;2023-03-01T15:52:49;10.43;;;4.18;;
67602;SDS011;54417;47.454;18.918;2023-03-01T15:58:15;5.68;;;4.05;;
67602;SDS011;54417;47.454;18.918;2023-03-01T16:03:43;5.10;;;3.65;;
67602;SDS011;54417;47.454;18.918;2023-03-01T16:09:07;8.77;;;3.60;;
67602;SDS011;54417;47.454;18.918;2023-03-01T16:14:31;8.82;;;4.13;;
67602;SDS011;54417;47.454;18.918;2023-03-01T16:19:56;8.20;;;4.15;;
67602;SDS011;54417;47.454;18.918;2023-03-01T16:25:20;9.88;;;4.30;;
67602;SDS011;54417;47.454;18.918;2023-03-01T16:30:45;6.47;;;4.22;;
67602;SDS011;54417;47.454;18.918;2023-03-01T16:36:12;11.70;;;4.30;;
67602;SDS011;54417;47.454;18.918;2023-03-01T16:41:36;12.10;;;5.30;;
67602;SDS011;54417;47.454;18.918;2023-03-01T16:47:00;10.30;;;6.10;;
67602;SDS011;54417;47.454;18.918;2023-03-01T16:52:25;17.42;;;7.43;;
67602;SDS011;54417;47.454;18.918;2023-03-01T16:57:49;16.42;;;7.38;;
67602;SDS011;54417;47.454;18.918;2023-03-01T17:03:13;15.35;;;6.35;;
67602;SDS011;54417;47.454;18.918;2023-03-01T17:08:40;12.98;;;6.40;;
67602;SDS011;54417;47.454;18.918;2023-03-01T17:14:04;24.55;;;12.15;;
67602;SDS011;54417;47.454;18.918;2023-03-01T17:19:28;37.47;;;15.23;;
67602;SDS011;54417;47.454;18.918;2023-03-01T17:24:55;9.40;;;6.40;;
67602;SDS011;54417;47.454;18.918;2023-03-01T17:30:19;11.25;;;7.40;;
67602;SDS011;54417;47.454;18.918;2023-03-01T17:35:42;11.38;;;6.22;;
67602;SDS011;54417;47.454;18.918;2023-03-01T17:41:09;14.07;;;7.60;;
67602;SDS011;54417;47.454;18.918;2023-03-01T17:46:33;22.17;;;9.95;;
67602;SDS011;54417;47.454;18.918;2023-03-01T17:51:57;28.58;;;12.25;;
67602;SDS011;54417;47.454;18.918;2023-03-01T17:57:23;27.73;;;14.68;;
67602;SDS011;54417;47.454;18.918;2023-03-01T18:02:47;21.55;;;12.25;;
67602;SDS011;54417;47.454;18.918;2023-03-01T18:08:10;19.75;;;10.18;;
67602;SDS011;54417;47.454;18.918;2023-03-01T18:13:36;15.18;;;7.88;;
67602;SDS011;54417;47.454;18.918;2023-03-01T18:19:01;14.98;;;7.38;;
67602;SDS011;54417;47.454;18.918;2023-03-01T18:24:25;14.88;;;9.68;;
67602;SDS011;54417;47.454;18.918;2023-03-01T18:29:50;18.20;;;8.73;;
67602;SDS011;54417;47.454;18.918;2023-03-01T18:35:14;15.52;;;8.73;;
67602;SDS011;54417;47.454;18.918;2023-03-01T18:40:40;17.65;;;8.88;;
67602;SDS011;54417;47.454;18.918;2023-03-01T18:46:06;11.70;;;8.05;;
67602;SDS011;54417;47.454;18.918;2023-03-01T18:51:29;12.48;;;7.45;;
67602;SDS011;54417;47.454;18.918;2023-03-01T18:56:54;11.15;;;7.03;;
67602;SDS011;54417;47.454;18.918;2023-03-01T19:02:19;17.67;;;8.07;;
67602;SDS011;54417;47.454;18.918;2023-03-01T19:07:43;13.95;;;8.73;;
67602;SDS011;54417;47.454;18.918;2023-03-01T19:13:07;21.27;;;9.77;;
67602;SDS011;54417;47.454;18.918;2023-03-01T19:18:32;16.27;;;8.60;;
67602;SDS011;54417;47.454;18.918;2023-03-01T19:23:57;21.13;;;8.77;;
67602;SDS011;54417;47.454;18.918;2023-03-01T19:29:23;21.48;;;9.07;;
67602;SDS011;54417;47.454;18.918;2023-03-01T19:34:48;17.50;;;9.30;;
67602;SDS011;54417;47.454;18.918;2023-03-01T19:40:12;14.95;;;9.23;;
67602;SDS011;54417;47.454;18.918;2023-03-01T19:45:36;21.83;;;10.30;;
67602;SDS011;54417;47.454;18.918;2023-03-01T19:51:01;21.83;;;11.82;;
67602;SDS011;54417;47.454;18.918;2023-03-01T19:56:25;30.55;;;14.00;;
67602;SDS011;54417;47.454;18.918;2023-03-01T20:01:49;35.28;;;15.55;;
67602;SDS011;54417;47.454;18.918;2023-03-01T20:07:15;24.60;;;13.57;;
67602;SDS011;54417;47.454;18.918;2023-03-01T20:12:40;34.60;;;14.15;;
67602;SDS011;54417;47.454;18.918;2023-03-01T20:18:04;28.00;;;13.52;;
67602;SDS011;54417;47.454;18.918;2023-03-01T20:23:29;24.35;;;10.88;;
67602;SDS011;54417;47.454;18.918;2023-03-01T20:28:54;19.85;;;9.48;;
67602;SDS011;54417;47.454;18.918;2023-03-01T20:34:19;21.35;;;11.20;;
67602;SDS011;54417;47.454;18.918;2023-03-01T20:39:44;20.83;;;8.35;;
67602;SDS011;54417;47.454;18.918;2023-03-01T20:45:08;14.85;;;8.23;;
67602;SDS011;54417;47.454;18.918;2023-03-01T20:50:33;19.02;;;8.18;;
67602;SDS011;54417;47.454;18.918;2023-03-01T20:56:01;17.65;;;10.63;;
67602;SDS011;54417;47.454;18.918;2023-03-01T21:01:26;21.63;;;10.02;;
67602;SDS011;54417;47.454;18.918;2023-03-01T21:06:50;25.15;;;10.35;;
67602;SDS011;54417;47.454;18.918;2023-03-01T21:12:16;31.95;;;15.65;;
67602;SDS011;54417;47.454;18.918;2023-03-01T21:17:41;20.52;;;11.85;;
67602;SDS011;54417;47.454;18.918;2023-03-01T21:23:05;24.85;;;11.65;;
67602;SDS011;54417;47.454;18.918;2023-03-01T21:28:30;20.63;;;10.98;;
67602;SDS011;54417;47.454;18.918;2023-03-01T21:33:56;19.20;;;9.55;;
67602;SDS011;54417;47.454;18.918;2023-03-01T21:39:21;21.30;;;10.65;;
67602;SDS011;54417;47.454;18.918;2023-03-01T21:44:51;21.17;;;10.48;;
67602;SDS011;54417;47.454;18.918;2023-03-01T21:50:15;18.35;;;9.82;;
67602;SDS011;54417;47.454;18.918;2023-03-01T21:55:45;20.67;;;11.05;;
67602;SDS011;54417;47.454;18.918;2023-03-01T22:01:11;20.67;;;11.60;;
67602;SDS011;54417;47.454;18.918;2023-03-01T22:06:36;21.75;;;11.32;;
67602;SDS011;54417;47.454;18.918;2023-03-01T22:12:03;19.38;;;11.13;;
67602;SDS011;54417;47.454;18.918;2023-03-01T22:17:29;20.10;;;11.80;;
67602;SDS011;54417;47.454;18.918;2023-03-01T22:22:52;23.27;;;11.13;;
67602;SDS011;54417;47.454;18.918;2023-03-01T22:28:16;24.90;;;10.98;;
67602;SDS011;54417;47.454;18.918;2023-03-01T22:33:42;22.10;;;11.20;;
67602;SDS011;54417;47.454;18.918;2023-03-01T22:39:06;27.25;;;12.55;;
67602;SDS011;54417;47.454;18.918;2023-03-01T22:44:30;22.80;;;11.13;;
67602;SDS011;54417;47.454;18.918;2023-03-01T22:49:56;19.65;;;10.23;;
67602;SDS011;54417;47.454;18.918;2023-03-01T22:55:20;22.63;;;10.15;;
67602;SDS011;54417;47.454;18.918;2023-03-01T23:00:44;21.50;;;9.75;;
67602;SDS011;54417;47.454;18.918;2023-03-01T23:06:09;17.10;;;9.88;;
67602;SDS011;54417;47.454;18.918;2023-03-01T23:11:34;17.15;;;8.93;;
67602;SDS011;54417;47.454;18.918;2023-03-01T23:16:57;18.50;;;10.52;;
67602;SDS011;54417;47.454;18.918;2023-03-01T23:22:24;12.93;;;8.43;;
67602;SDS011;54417;47.454;18.918;2023-03-01T23:27:47;15.52;;;8.85;;
67602;SDS011;54417;47.454;18.918;2023-03-01T23:33:11;19.90;;;10.25;;
67602;SDS011;54417;47.454;18.918;2023-03-01T23:38:36;18.25;;;9.90;;
67602;SDS011;54417;47.454;18.918;2023-03-01T23:44:01;16.30;;;8.95;;
67602;SDS011;54417;47.454;18.918;2023-03-01T23:49:25;13.80;;;8.50;;
67602;SDS011;54417;47.454;18.918;2023-03-01T23:54:51;14.80;;;8.55;;
